Terminal Aerodrome Forecast
Issued by NWS

Home | Current Version | Previous Version | Text Only | Print | Product List | Glossary On
Versions: 1 2 3 4 5 6 7 8 9 10 11 12 13 14 15 16 17
000
FTAK31 PAJN 301100
TAFAJN
TAF
PAJN 301135Z 3012/3112 VRB04KT P6SM -SHRA SCT010 OVC040
     FM301800 12006KT P6SM VCSH SCT025 OVC050
     FM310000 09006KT P6SM VCSH OVC050
     FM310600 VRB04KT P6SM VCSH SCT025 OVC050
     FM310900 VRB03KT P6SM -SHRA SCT020 OVC040=

USA.gov is the U.S. government's official web portal to all federal, state and local government web resources and services.